Time;durP1;ratioP1;P1;durP2;ratioP2;P2;SDS_P1;SDS_P2;PMS_P1;PMS_P2;Temp;Humidity;BMP_temperature;BMP_pressure;BME280_temperature;BME280_humidity;BME280_pressure;Samples;Min_cycle;Max_cycle;Signal;HPM_P1;HPM_P2
2021/01/24 00:00:09;;;;;;;15.93;10.02;;;;;;;2.06;73.03;99164.94;682514;28;904;-59
2021/01/24 00:00:50;;;;;;;16.35;9.93;;;;;;;2.05;72.96;99168.56;679485;28;137375;-61
2021/01/24 00:01:12;;;;;;;16.88;10.02;;;;;;;2.04;73.03;99169.56;682873;28;45248;-61
2021/01/24 00:01:33;;;;;;;14.65;9.77;;;;;;;2.02;73.01;99163.56;683911;28;23476;-60
2021/01/24 00:01:55;;;;;;;14.25;9.55;;;;;;;2.04;72.98;99164.22;684432;28;23522;-60
2021/01/24 00:02:16;;;;;;;13.45;9.75;;;;;;;2.03;73.01;99165.25;684013;28;21538;-60
2021/01/24 00:02:38;;;;;;;14.85;10.43;;;;;;;2.04;73.07;99165.09;684029;28;14334;-62
2021/01/24 00:02:59;;;;;;;15.65;10.32;;;;;;;2.03;73.17;99162.59;683934;28;29114;-61
2021/01/24 00:03:21;;;;;;;15.35;10.45;;;;;;;2.04;72.98;99167.75;683532;28;24330;-60
2021/01/24 00:03:42;;;;;;;15.90;10.65;;;;;;;2.05;72.94;99168.56;682908;28;46292;-61
2021/01/24 00:04:04;;;;;;;16.08;10.80;;;;;;;2.05;73.06;99163.25;684020;28;17505;-62
2021/01/24 00:04:26;;;;;;;14.98;10.35;;;;;;;2.04;73.13;99166.91;683894;28;44337;-60
2021/01/24 00:04:47;;;;;;;15.82;10.70;;;;;;;2.05;73.03;99164.06;682439;28;44389;-60
2021/01/24 00:05:08;;;;;;;12.95;9.75;;;;;;;2.06;73.02;99168.41;682916;28;18642;-61
2021/01/24 00:05:29;;;;;;;14.60;10.50;;;;;;;2.05;73.11;99161.41;684231;28;23485;-61
2021/01/24 00:05:51;;;;;;;14.35;10.00;;;;;;;2.05;73.22;99160.59;683159;28;44393;-61
2021/01/24 00:06:12;;;;;;;14.75;9.63;;;;;;;2.05;73.15;99157.91;683897;28;23462;-60
2021/01/24 00:06:34;;;;;;;14.48;9.65;;;;;;;2.04;73.21;99161.56;683107;28;45038;-62
2021/01/24 00:06:55;;;;;;;15.25;10.40;;;;;;;2.03;73.22;99158.09;684369;28;24348;-61
2021/01/24 00:07:17;;;;;;;16.23;10.45;;;;;;;2.04;73.09;99159.75;683949;28;23491;-62
2021/01/24 00:07:38;;;;;;;15.02;10.25;;;;;;;2.04;73.13;99161.56;682736;28;46316;-61
2021/01/24 00:07:59;;;;;;;14.55;10.27;;;;;;;2.03;73.23;99160.75;683908;28;22482;-60
2021/01/24 00:08:22;;;;;;;14.70;10.10;;;;;;;2.03;73.21;99159.91;684657;28;977;-60
2021/01/24 00:08:44;;;;;;;14.45;10.05;;;;;;;2.03;73.17;99167.91;681830;28;70306;-61
2021/01/24 00:09:05;;;;;;;18.25;10.95;;;;;;;2.01;73.17;99159.22;682964;28;45267;-61
2021/01/24 00:09:26;;;;;;;16.48;10.52;;;;;;;2.00;73.13;99166.38;684952;28;7891;-61
2021/01/24 00:09:48;;;;;;;15.55;10.40;;;;;;;2.00;73.19;99165.56;682951;28;46281;-61
2021/01/24 00:10:12;;;;;;;16.02;10.60;;;;;;;1.97;73.17;99158.72;684068;28;18051;-62
2021/01/24 00:10:33;;;;;;;14.30;10.35;;;;;;;1.96;73.25;99165.06;681404;28;93149;-61
2021/01/24 00:10:55;;;;;;;15.50;10.75;;;;;;;1.94;73.31;99167.03;683088;28;46576;-62
2021/01/24 00:11:16;;;;;;;14.55;10.43;;;;;;;1.93;73.27;99160.88;684036;28;22130;-62
2021/01/24 00:11:37;;;;;;;15.23;10.43;;;;;;;1.95;73.26;99160.72;683852;28;24426;-60
2021/01/24 00:11:59;;;;;;;14.68;10.13;;;;;;;1.96;73.27;99160.56;685013;28;913;-60
2021/01/24 00:12:21;;;;;;;15.63;10.55;;;;;;;1.97;73.25;99164.91;682757;28;46402;-60
2021/01/24 00:12:45;;;;;;;16.77;10.35;;;;;;;1.99;73.40;99170.03;681650;29;12424;-58
2021/01/24 00:13:07;;;;;;;16.15;10.38;;;;;;;2.01;73.45;99173.41;678964;29;92351;-60
2021/01/24 00:13:28;;;;;;;19.13;11.35;;;;;;;2.02;73.34;99167.06;680713;29;39041;-59
2021/01/24 00:13:49;;;;;;;16.37;10.53;;;;;;;2.02;73.47;99169.72;681740;29;9131;-59
2021/01/24 00:14:11;;;;;;;16.27;10.43;;;;;;;2.02;73.41;99169.72;680460;29;46761;-61
2021/01/24 00:14:32;;;;;;;15.40;10.65;;;;;;;2.03;73.40;99167.91;681985;28;21558;-61
2021/01/24 00:14:53;;;;;;;17.17;11.00;;;;;;;2.03;73.32;99166.06;682876;28;46392;-60
2021/01/24 00:15:15;;;;;;;15.40;10.93;;;;;;;2.03;73.33;99160.75;683894;28;23760;-58
2021/01/24 00:15:37;;;;;;;16.35;10.85;;;;;;;2.04;73.43;99167.75;683200;28;46318;-61
2021/01/24 00:15:58;;;;;;;15.27;10.52;;;;;;;2.02;73.38;99161.72;684559;28;21578;-61
2021/01/24 00:16:19;;;;;;;14.98;10.85;;;;;;;2.05;73.35;99168.56;685225;28;840;-61
2021/01/24 00:16:41;;;;;;;17.30;11.27;;;;;;;2.04;73.23;99165.09;684478;28;22548;-60
2021/01/24 00:17:02;;;;;;;17.00;10.85;;;;;;;2.06;73.37;99164.94;685231;28;21533;-60
2021/01/24 00:17:24;;;;;;;16.38;10.52;;;;;;;2.05;73.41;99163.25;684212;28;22414;-61
2021/01/24 00:17:45;;;;;;;17.55;10.70;;;;;;;2.05;73.32;99168.56;684423;28;30865;-60
2021/01/24 00:18:07;;;;;;;14.65;10.35;;;;;;;2.03;73.39;99166.06;683657;28;46384;-60
2021/01/24 00:18:28;;;;;;;15.95;10.40;;;;;;;2.03;73.45;99166.06;684987;28;5107;-61
2021/01/24 00:18:50;;;;;;;16.45;10.13;;;;;;;2.03;73.36;99165.25;683281;28;46920;-61
2021/01/24 00:19:11;;;;;;;16.85;10.73;;;;;;;2.04;73.35;99170.41;684193;28;22327;-60
2021/01/24 00:19:32;;;;;;;15.43;10.60;;;;;;;2.04;73.24;99164.22;684504;28;23560;-59
2021/01/24 00:19:53;;;;;;;15.38;10.77;;;;;;;2.02;73.30;99167.06;683635;28;39099;-60
2021/01/24 00:20:15;;;;;;;16.20;10.63;;;;;;;2.01;73.31;99162.75;684633;28;22518;-61
2021/01/24 00:20:37;;;;;;;14.90;10.60;;;;;;;2.02;73.21;99164.41;684142;28;29157;-62
2021/01/24 00:20:58;;;;;;;15.65;10.82;;;;;;;2.03;73.14;99167.91;684373;28;22482;-61
2021/01/24 00:21:19;;;;;;;16.38;10.75;;;;;;;2.03;73.31;99167.91;684205;28;30075;-62
2021/01/24 00:21:40;;;;;;;14.75;9.98;;;;;;;2.02;73.36;99161.72;684714;28;17027;-60
2021/01/24 00:22:02;;;;;;;15.65;10.52;;;;;;;2.01;73.42;99162.75;685867;28;1060;-61
2021/01/24 00:22:24;;;;;;;17.88;11.20;;;;;;;2.00;73.33;99160.25;683401;28;46587;-60
2021/01/24 00:22:45;;;;;;;16.58;10.88;;;;;;;1.94;73.51;99157.22;684513;28;23367;-59
2021/01/24 00:23:06;;;;;;;16.70;10.80;;;;;;;2.01;73.35;99159.22;683897;28;46293;-60
2021/01/24 00:23:28;;;;;;;17.10;10.95;;;;;;;2.00;73.49;99166.38;684554;28;17415;-61
2021/01/24 00:23:49;;;;;;;18.42;10.68;;;;;;;2.02;73.38;99166.22;684044;28;37688;-60
2021/01/24 00:24:11;;;;;;;16.92;10.40;;;;;;;2.02;73.50;99172.38;684641;28;16954;-61
2021/01/24 00:24:32;;;;;;;16.15;10.55;;;;;;;2.02;73.52;99164.41;685058;28;23846;-61
2021/01/24 00:24:54;;;;;;;14.57;10.55;;;;;;;2.03;73.44;99165.25;683421;28;42872;-60
2021/01/24 00:25:15;;;;;;;14.90;10.65;;;;;;;2.04;73.48;99164.22;684658;28;16970;-61
2021/01/24 00:25:36;;;;;;;14.07;10.35;;;;;;;2.05;73.62;99168.56;684100;28;33600;-60
2021/01/24 00:25:58;;;;;;;14.65;10.57;;;;;;;2.05;73.62;99164.06;684496;28;23532;-61
2021/01/24 00:26:19;;;;;;;16.63;10.85;;;;;;;2.06;73.54;99165.75;684394;28;23483;-60
2021/01/24 00:26:41;;;;;;;15.57;10.73;;;;;;;2.07;73.47;99170.09;683598;28;46684;-61
2021/01/24 00:27:06;;;;;;;15.40;10.82;;;;;;;2.07;73.54;99171.91;683035;28;58919;-60
2021/01/24 00:27:30;;;;;;;17.50;11.10;;;;;;;2.08;73.41;99165.59;683691;28;14918;-61
2021/01/24 00:27:52;;;;;;;16.95;11.32;;;;;;;2.09;73.39;99169.94;684781;28;23446;-59
2021/01/24 00:28:20;;;;;;;16.73;10.85;;;;;;;2.09;73.45;99168.09;684377;28;27049;-61
2021/01/24 00:28:42;;;;;;;17.15;11.00;;;;;;;2.10;73.48;99166.25;682192;28;60871;-61
2021/01/24 00:29:03;;;;;;;15.93;10.65;;;;;;;2.09;73.34;99164.59;684328;28;18146;-60
2021/01/24 00:29:25;;;;;;;16.40;10.52;;;;;;;2.08;73.51;99165.59;683932;28;46424;-61
2021/01/24 00:29:46;;;;;;;15.20;10.77;;;;;;;2.09;73.24;99161.94;683828;28;23428;-61
2021/01/24 00:30:08;;;;;;;15.43;10.85;;;;;;;2.09;73.31;99159.28;684036;28;36866;-61
2021/01/24 00:30:29;;;;;;;14.52;10.52;;;;;;;2.10;73.39;99161.78;683724;28;45264;-62
2021/01/24 00:30:51;;;;;;;16.00;10.98;;;;;;;2.09;73.28;99161.94;684437;28;13724;-62
2021/01/24 00:31:12;;;;;;;18.23;11.15;;;;;;;2.10;73.44;99167.09;683537;28;21575;-61
2021/01/24 00:31:37;;;;;;;18.75;11.52;;;;;;;2.11;73.32;99158.09;683765;28;37846;-62
2021/01/24 00:31:59;;;;;;;17.10;11.57;;;;;;;2.11;73.38;99163.44;681607;28;46329;-61
2021/01/24 00:32:20;;;;;;;18.13;11.07;;;;;;;2.12;73.29;99158.97;682146;29;13285;-61
2021/01/24 00:32:41;;;;;;;16.77;10.82;;;;;;;2.12;73.35;99158.97;680690;29;43659;-61
2021/01/24 00:33:03;;;;;;;17.42;11.20;;;;;;;2.13;73.36;99168.59;681867;29;22477;-60
2021/01/24 00:33:24;;;;;;;17.60;10.90;;;;;;;2.10;73.28;99160.94;680705;29;46374;-60
2021/01/24 00:33:45;;;;;;;17.25;11.27;;;;;;;2.10;73.24;99167.09;682144;29;20117;-61
2021/01/24 00:34:07;;;;;;;16.60;11.57;;;;;;;2.09;73.19;99162.78;683012;29;909;-61
2021/01/24 00:34:28;;;;;;;18.15;11.38;;;;;;;2.09;73.19;99162.78;681947;29;47305;-61
2021/01/24 00:34:49;;;;;;;16.45;10.85;;;;;;;2.09;73.17;99168.09;682113;29;22503;-62
2021/01/24 00:35:11;;;;;;;19.23;11.35;;;;;;;2.08;73.22;99161.09;681980;29;22404;-61
2021/01/24 00:35:32;;;;;;;18.23;10.98;;;;;;;2.09;73.18;99160.09;681023;29;46205;-62
2021/01/24 00:35:54;;;;;;;17.83;11.20;;;;;;;2.11;73.29;99157.28;681847;29;22607;-61
2021/01/24 00:36:16;;;;;;;16.98;11.13;;;;;;;2.09;73.14;99162.78;681194;28;46132;-61
2021/01/24 00:36:37;;;;;;;16.67;11.43;;;;;;;2.09;73.09;99160.09;681403;29;44421;-62
2021/01/24 00:36:58;;;;;;;16.15;11.15;;;;;;;2.08;73.22;99163.75;682538;29;23401;-62
2021/01/24 00:37:20;;;;;;;16.00;11.13;;;;;;;2.07;73.35;99163.91;682898;29;1899;-62
2021/01/24 00:37:41;;;;;;;15.75;10.77;;;;;;;2.07;73.29;99159.44;681370;29;46311;-61
2021/01/24 00:38:03;;;;;;;17.67;10.90;;;;;;;2.07;73.32;99159.44;682029;28;22424;-61
2021/01/24 00:38:24;;;;;;;16.95;11.27;;;;;;;2.07;73.27;99159.44;681098;28;46342;-61
2021/01/24 00:38:46;;;;;;;16.73;11.43;;;;;;;2.06;73.25;99156.94;681752;28;17341;-61
2021/01/24 00:39:07;;;;;;;18.40;12.18;;;;;;;2.08;73.33;99162.94;681335;29;45011;-62
2021/01/24 00:39:28;;;;;;;17.83;11.63;;;;;;;2.09;73.24;99159.28;682800;29;18324;-62
2021/01/24 00:39:50;;;;;;;15.77;11.40;;;;;;;2.08;73.32;99157.59;682148;28;23725;-62
2021/01/24 00:40:12;;;;;;;17.52;11.02;;;;;;;2.08;73.27;99155.75;681464;29;46319;-60
2021/01/24 00:40:33;;;;;;;18.50;11.68;;;;;;;2.09;73.44;99154.78;681778;29;40642;-62
2021/01/24 00:40:54;;;;;;;18.83;11.13;;;;;;;2.11;73.24;99157.28;682079;29;21520;-61
2021/01/24 00:41:16;;;;;;;18.73;11.55;;;;;;;2.09;73.18;99151.28;682008;28;23558;-62
2021/01/24 00:41:37;;;;;;;17.63;11.57;;;;;;;2.10;73.13;99153.78;682086;29;26625;-62
2021/01/24 00:41:59;;;;;;;17.30;11.65;;;;;;;2.11;73.23;99160.75;682903;29;21239;-60
2021/01/24 00:42:20;;;;;;;18.65;12.07;;;;;;;2.13;73.31;99158.78;681323;29;46345;-61
2021/01/24 00:42:41;;;;;;;19.58;11.82;;;;;;;2.15;73.33;99153.31;684425;28;23434;-60
2021/01/24 00:43:02;;;;;;;19.50;11.57;;;;;;;2.14;73.12;99152.47;682860;29;8963;-62
2021/01/24 00:43:25;;;;;;;18.42;12.02;;;;;;;2.15;73.15;99154.13;680740;29;44372;-62
2021/01/24 00:43:46;;;;;;;18.42;12.23;;;;;;;2.13;73.06;99152.63;681152;29;46336;-62
2021/01/24 00:44:08;;;;;;;17.50;12.33;;;;;;;2.15;73.10;99153.31;681913;29;21601;-61
2021/01/24 00:44:29;;;;;;;17.20;11.90;;;;;;;2.15;73.01;99155.97;681765;29;47487;-61
2021/01/24 00:44:51;;;;;;;17.80;11.35;;;;;;;2.16;72.97;99153.16;681996;29;23286;-60
2021/01/24 00:45:12;;;;;;;19.30;11.88;;;;;;;2.18;72.97;99158.31;681069;29;46005;-61
2021/01/24 00:45:36;;;;;;;18.15;11.93;;;;;;;2.17;73.03;99153.97;682038;29;15308;-60
2021/01/24 00:45:57;;;;;;;16.63;11.15;;;;;;;2.17;73.01;99153.97;681936;29;22210;-60
2021/01/24 00:46:19;;;;;;;17.73;11.70;;;;;;;2.17;73.08;99157.47;681902;29;24446;-60
2021/01/24 00:46:40;;;;;;;18.58;11.70;;;;;;;2.19;72.97;99161.81;681286;29;44399;-61
2021/01/24 00:47:02;;;;;;;16.98;11.32;;;;;;;2.17;72.98;99151.31;683628;29;1461;-61
2021/01/24 00:47:24;;;;;;;15.23;10.98;;;;;;;2.18;72.91;99153.00;683025;28;843;-61
2021/01/24 00:47:46;;;;;;;16.63;10.93;;;;;;;2.19;72.89;99153.81;681810;29;22500;-60
2021/01/24 00:48:07;;;;;;;16.42;10.82;;;;;;;2.17;72.81;99153.97;682151;29;22411;-61
2021/01/24 00:48:32;;;;;;;16.63;10.73;;;;;;;2.18;72.92;99153.00;680877;29;46452;-60
2021/01/24 00:48:54;;;;;;;16.65;11.00;;;;;;;2.18;72.90;99153.00;678071;28;108236;-61
2021/01/24 00:49:16;;;;;;;15.90;11.27;;;;;;;2.20;72.84;99152.81;681386;29;45002;-59
2021/01/24 00:49:37;;;;;;;16.00;10.85;;;;;;;2.21;72.79;99151.81;681890;29;17778;-62
2021/01/24 00:50:01;;;;;;;17.45;11.07;;;;;;;2.21;72.71;99154.47;681128;29;46470;-62
2021/01/24 00:50:23;;;;;;;17.15;11.35;;;;;;;2.20;72.73;99150.16;680057;29;86857;-61
2021/01/24 00:50:44;;;;;;;17.23;11.15;;;;;;;2.19;72.87;99146.63;681860;28;46507;-61
2021/01/24 00:51:07;;;;;;;15.45;10.82;;;;;;;2.17;72.87;99146.81;681909;29;16518;-61
2021/01/24 00:51:29;;;;;;;16.97;10.73;;;;;;;2.21;72.72;99157.13;676547;29;93128;-60
2021/01/24 00:51:51;;;;;;;16.38;11.02;;;;;;;2.20;72.90;99153.66;677965;29;45065;-62
2021/01/24 00:52:13;;;;;;;16.83;11.00;;;;;;;2.20;72.67;99155.50;679066;29;22399;-62
2021/01/24 00:52:36;;;;;;;17.92;11.60;;;;;;;2.20;72.71;99153.66;672275;29;105196;-61
2021/01/24 00:52:58;;;;;;;14.95;10.65;;;;;;;2.19;72.81;99148.47;675930;29;45348;-61
2021/01/24 00:53:20;;;;;;;14.45;10.65;;;;;;;2.21;72.68;99151.81;676362;29;22457;-59
2021/01/24 00:53:42;;;;;;;14.77;10.77;;;;;;;2.20;72.59;99150.16;679401;29;22749;-61
2021/01/24 00:54:03;;;;;;;13.77;9.80;;;;;;;2.19;72.75;99148.47;678348;29;44769;-61
2021/01/24 00:54:24;;;;;;;15.45;10.35;;;;;;;2.17;72.62;99152.13;680610;29;21465;-60
2021/01/24 00:54:45;;;;;;;16.70;10.57;;;;;;;2.17;72.68;99149.47;680941;29;45290;-60
2021/01/24 00:55:08;;;;;;;16.95;11.10;;;;;;;2.17;72.71;99152.13;681501;29;22412;-61
2021/01/24 00:55:29;;;;;;;17.48;11.38;;;;;;;2.17;72.75;99157.47;681830;29;44876;-60
2021/01/24 00:55:51;;;;;;;16.73;10.75;;;;;;;2.18;72.78;99158.31;681923;29;22478;-61
2021/01/24 00:56:12;;;;;;;15.65;10.60;;;;;;;2.17;72.68;99157.47;681952;29;22508;-61
2021/01/24 00:56:34;;;;;;;17.60;11.35;;;;;;;2.17;72.87;99157.47;682168;28;23415;-61
2021/01/24 00:56:55;;;;;;;17.83;11.35;;;;;;;2.17;72.64;99153.97;681602;29;46372;-57
2021/01/24 00:57:16;;;;;;;15.75;10.88;;;;;;;2.16;72.80;99153.16;682087;29;23422;-60
2021/01/24 00:57:37;;;;;;;16.10;10.65;;;;;;;2.17;72.85;99161.97;681348;29;44390;-59
2021/01/24 00:57:59;;;;;;;15.75;10.82;;;;;;;2.17;72.78;99157.47;682345;28;22374;-61
2021/01/24 00:58:21;;;;;;;15.88;10.65;;;;;;;2.16;72.58;99163.81;681429;28;43912;-60
2021/01/24 00:58:43;;;;;;;17.25;10.38;;;;;;;2.18;72.75;99155.66;682599;29;853;-58
2021/01/24 00:59:04;;;;;;;17.08;10.60;;;;;;;2.20;72.66;99158.16;680376;29;66533;-61
2021/01/24 00:59:26;;;;;;;15.80;10.95;;;;;;;2.21;72.69;99162.47;681964;29;47196;-61
2021/01/24 00:59:47;;;;;;;15.00;10.50;;;;;;;2.20;72.72;99156.31;682238;28;22334;-60
2021/01/24 01:00:09;;;;;;;15.82;11.10;;;;;;;2.22;72.72;99159.63;681694;29;31510;-59
2021/01/24 01:00:31;;;;;;;16.27;10.75;;;;;;;2.23;72.49;99163.16;681476;28;46596;-61
2021/01/24 01:00:52;;;;;;;16.92;10.68;;;;;;;2.24;72.60;99156.81;683424;28;13459;-60
2021/01/24 01:01:14;;;;;;;16.75;10.88;;;;;;;2.24;72.56;99157.66;684527;28;22316;-61
2021/01/24 01:01:35;;;;;;;19.33;11.35;;;;;;;2.25;72.49;99161.97;683779;28;46338;-60
2021/01/24 01:01:56;;;;;;;17.10;10.73;;;;;;;2.24;72.58;99162.13;685050;28;22500;-61
2021/01/24 01:02:17;;;;;;;16.27;10.45;;;;;;;2.24;72.41;99154.16;683731;28;46124;-62
2021/01/24 01:02:39;;;;;;;17.63;10.77;;;;;;;2.24;72.54;99163.00;683730;28;23690;-61
2021/01/24 01:03:00;;;;;;;15.57;10.73;;;;;;;2.20;72.57;99153.66;682231;29;22401;-62
2021/01/24 01:03:22;;;;;;;15.18;10.63;;;;;;;2.26;72.46;99152.19;681088;29;46399;-61
2021/01/24 01:03:43;;;;;;;16.13;11.38;;;;;;;2.30;72.33;99161.50;682916;28;957;-62
2021/01/24 01:04:04;;;;;;;15.32;10.73;;;;;;;2.32;72.36;99159.50;681604;29;40380;-62
2021/01/24 01:04:26;;;;;;;15.57;10.50;;;;;;;2.31;72.21;99155.19;682456;29;23722;-60
2021/01/24 01:04:47;;;;;;;15.25;10.52;;;;;;;2.29;72.22;99157.19;684362;28;25795;-59
2021/01/24 01:05:09;;;;;;;14.73;10.23;;;;;;;2.27;72.47;99153.81;684873;28;11419;-61
2021/01/24 01:05:30;;;;;;;14.65;10.13;;;;;;;2.29;72.36;99154.53;683840;28;23407;-61
2021/01/24 01:05:51;;;;;;;15.88;10.48;;;;;;;2.24;72.22;99143.50;683945;28;44778;-59
2021/01/24 01:06:13;;;;;;;18.67;10.55;;;;;;;2.29;72.15;99151.84;684658;28;21544;-60
2021/01/24 01:06:34;;;;;;;17.13;10.90;;;;;;;2.27;72.27;99148.50;683249;28;46352;-59
2021/01/24 01:06:56;;;;;;;16.42;10.68;;;;;;;2.27;72.31;99151.16;682621;29;23475;-62
2021/01/24 01:07:17;;;;;;;16.55;10.52;;;;;;;2.26;72.26;99150.34;681333;28;45972;-62
2021/01/24 01:07:39;;;;;;;17.10;10.77;;;;;;;2.26;72.30;99152.19;682072;29;21773;-61
2021/01/24 01:08:01;;;;;;;17.45;10.98;;;;;;;2.25;72.23;99148.66;682820;28;1681;-61
2021/01/24 01:08:23;;;;;;;17.25;10.32;;;;;;;2.22;72.25;99143.66;682122;29;20177;-60
2021/01/24 01:08:44;;;;;;;15.77;10.27;;;;;;;2.25;72.26;99147.84;682115;29;21541;-60
2021/01/24 01:09:07;;;;;;;16.02;10.05;;;;;;;2.24;72.32;99151.47;682178;29;11899;-60
2021/01/24 01:09:29;;;;;;;16.63;10.20;;;;;;;2.24;72.34;99152.34;682827;28;18564;-61
2021/01/24 01:09:50;;;;;;;17.27;10.82;;;;;;;2.24;72.39;99149.69;681347;29;46326;-60
2021/01/24 01:10:12;;;;;;;15.85;10.48;;;;;;;2.20;72.22;99144.84;682185;29;23439;-62
2021/01/24 01:10:34;;;;;;;16.15;10.90;;;;;;;2.25;72.34;99147.84;681880;28;22481;-62
2021/01/24 01:10:55;;;;;;;17.65;11.27;;;;;;;2.25;72.26;99151.31;681132;29;45183;-61
2021/01/24 01:11:17;;;;;;;17.50;11.13;;;;;;;2.25;72.16;99159.31;681534;29;40712;-62
2021/01/24 01:11:38;;;;;;;17.05;10.75;;;;;;;2.25;72.36;99154.00;682171;29;22190;-62
2021/01/24 01:11:59;;;;;;;14.70;10.63;;;;;;;2.25;72.29;99151.31;682292;29;33842;-61
2021/01/24 01:12:20;;;;;;;14.88;10.65;;;;;;;2.25;72.18;99151.31;682196;29;21548;-61
2021/01/24 01:12:42;;;;;;;15.73;10.73;;;;;;;2.26;72.26;99149.50;682464;28;15226;-58
2021/01/24 01:13:03;;;;;;;15.43;10.93;;;;;;;2.25;72.28;99150.50;682737;29;18614;-60
2021/01/24 01:13:25;;;;;;;17.23;10.98;;;;;;;2.24;72.34;99152.34;682342;29;9178;-60
2021/01/24 01:13:47;;;;;;;17.77;11.00;;;;;;;2.24;72.27;99146.16;681145;29;45270;-60
2021/01/24 01:14:08;;;;;;;15.88;10.50;;;;;;;2.26;72.33;99154.84;680906;28;46402;-60
2021/01/24 01:14:30;;;;;;;15.15;10.05;;;;;;;2.26;72.28;99152.19;682592;29;18883;-61
2021/01/24 01:14:51;;;;;;;14.20;10.27;;;;;;;2.25;72.25;99146.00;680732;28;44392;-62
2021/01/24 01:15:15;;;;;;;14.50;10.55;;;;;;;2.24;72.03;99147.00;681331;29;21540;-62
2021/01/24 01:15:36;;;;;;;15.88;11.15;;;;;;;2.25;72.35;99155.81;679510;29;84807;-61
2021/01/24 01:15:58;;;;;;;16.35;10.95;;;;;;;2.24;72.30;99148.81;682096;29;22462;-61
2021/01/24 01:16:19;;;;;;;14.65;10.25;;;;;;;2.25;72.26;99153.16;681596;29;33653;-60
2021/01/24 01:16:41;;;;;;;16.15;10.63;;;;;;;2.23;72.28;99144.50;681943;29;22404;-60
2021/01/24 01:17:02;;;;;;;17.10;10.82;;;;;;;2.23;72.28;99147.19;682124;29;40123;-61
2021/01/24 01:17:24;;;;;;;17.40;10.65;;;;;;;2.23;72.25;99150.66;681986;29;23521;-61
2021/01/24 01:17:45;;;;;;;15.88;11.02;;;;;;;2.24;72.37;99147.00;681646;29;38319;-62
2021/01/24 01:18:06;;;;;;;16.65;11.05;;;;;;;2.23;72.38;99153.31;682208;29;22512;-60
2021/01/24 01:18:28;;;;;;;16.23;10.70;;;;;;;2.22;72.38;99151.66;681714;28;21371;-61
2021/01/24 01:18:49;;;;;;;15.32;10.60;;;;;;;2.23;72.38;99147.19;681648;29;36122;-60
2021/01/24 01:19:11;;;;;;;17.23;10.82;;;;;;;2.23;72.27;99149.84;681372;28;41124;-61
2021/01/24 01:19:32;;;;;;;16.55;11.13;;;;;;;2.22;72.49;99151.66;682018;29;46251;-61
2021/01/24 01:19:53;;;;;;;16.05;10.60;;;;;;;2.21;72.38;99152.66;682131;29;21547;-61
2021/01/24 01:20:16;;;;;;;16.27;10.70;;;;;;;2.17;72.56;99149.47;682561;29;23421;-60
2021/01/24 01:20:37;;;;;;;15.25;10.90;;;;;;;2.19;72.51;99145.81;680255;29;68508;-62
2021/01/24 01:20:59;;;;;;;14.75;10.65;;;;;;;2.16;72.68;99150.47;682060;29;22474;-61
2021/01/24 01:21:20;;;;;;;14.57;10.57;;;;;;;2.17;72.54;99157.47;681226;29;45246;-62
2021/01/24 01:21:42;;;;;;;14.98;10.52;;;;;;;2.18;72.39;99150.31;682115;29;23523;-60
2021/01/24 01:22:03;;;;;;;15.95;10.10;;;;;;;2.17;72.64;99145.97;681840;29;46403;-59
2021/01/24 01:22:24;;;;;;;17.77;11.00;;;;;;;2.16;72.49;99153.16;681886;29;22372;-61
2021/01/24 01:22:46;;;;;;;17.00;10.90;;;;;;;2.09;72.68;99138.78;682225;28;23300;-59
2021/01/24 01:23:07;;;;;;;16.05;11.48;;;;;;;2.14;72.63;99149.78;681009;29;44617;-60
2021/01/24 01:23:29;;;;;;;16.25;11.27;;;;;;;2.13;72.66;99147.28;682523;29;2918;-60
2021/01/24 01:23:50;;;;;;;17.98;11.25;;;;;;;2.14;72.74;99147.13;681366;29;45668;-60
2021/01/24 01:24:12;;;;;;;17.30;11.23;;;;;;;2.13;72.59;99150.81;682858;28;1240;-61
2021/01/24 01:24:36;;;;;;;19.25;11.38;;;;;;;2.12;72.68;99153.63;682015;29;14895;-60
2021/01/24 01:24:59;;;;;;;15.80;10.85;;;;;;;2.11;72.80;99146.63;682317;28;938;-61
2021/01/24 01:25:21;;;;;;;16.98;11.68;;;;;;;2.08;72.80;99147.78;683061;29;908;-61
2021/01/24 01:25:43;;;;;;;16.30;11.30;;;;;;;2.07;72.91;99151.44;682639;29;1072;-60
2021/01/24 01:26:05;;;;;;;17.07;10.77;;;;;;;2.08;72.77;99150.44;682166;29;23543;-58
2021/01/24 01:26:27;;;;;;;16.45;10.68;;;;;;;2.06;72.89;99147.09;681341;29;43117;-60
2021/01/24 01:26:48;;;;;;;16.00;10.95;;;;;;;2.11;72.98;99152.78;682340;29;32483;-60
2021/01/24 01:27:09;;;;;;;16.83;10.98;;;;;;;2.09;73.01;99149.44;681484;28;23549;-60
2021/01/24 01:27:31;;;;;;;16.65;10.75;;;;;;;2.10;72.98;99158.25;682089;29;844;-60
2021/01/24 01:27:53;;;;;;;15.63;10.48;;;;;;;2.08;72.92;99153.09;682971;29;1364;-60
2021/01/24 01:28:14;;;;;;;16.98;10.82;;;;;;;2.09;73.13;99149.44;681322;29;45267;-61
2021/01/24 01:28:43;;;;;;;16.70;10.50;;;;;;;2.10;73.10;99156.44;680604;29;61367;-61
2021/01/24 01:29:05;;;;;;;16.88;10.55;;;;;;;2.10;73.06;99156.44;680536;28;46371;-58
2021/01/24 01:29:27;;;;;;;16.95;11.10;;;;;;;2.08;73.12;99153.09;682007;29;38933;-60
2021/01/24 01:29:48;;;;;;;15.82;11.13;;;;;;;2.10;73.18;99160.94;682538;29;12645;-60
2021/01/24 01:30:11;;;;;;;17.30;11.23;;;;;;;2.09;73.09;99157.44;681352;29;39187;-60
2021/01/24 01:30:32;;;;;;;17.27;10.80;;;;;;;2.08;73.02;99158.44;681712;29;45278;-62
2021/01/24 01:30:54;;;;;;;16.88;10.57;;;;;;;2.09;73.14;99154.78;681505;28;20886;-62
2021/01/24 01:31:15;;;;;;;15.82;10.88;;;;;;;2.09;73.09;99159.28;681212;28;45256;-62
2021/01/24 01:31:36;;;;;;;16.65;11.13;;;;;;;2.09;73.09;99162.78;681270;29;46161;-61
2021/01/24 01:31:58;;;;;;;16.65;10.50;;;;;;;2.10;73.03;99158.25;682361;29;22477;-60
2021/01/24 01:32:19;;;;;;;15.50;10.38;;;;;;;2.09;73.14;99160.09;681655;29;21882;-60
2021/01/24 01:32:41;;;;;;;15.45;11.00;;;;;;;2.07;73.03;99159.44;681846;29;22482;-60
2021/01/24 01:33:02;;;;;;;15.80;11.57;;;;;;;2.05;72.98;99157.91;681737;29;46350;-61
2021/01/24 01:33:24;;;;;;;14.73;10.52;;;;;;;2.09;73.11;99162.78;681184;28;46229;-62
2021/01/24 01:33:45;;;;;;;15.15;10.52;;;;;;;2.10;73.03;99166.25;682144;29;23322;-60
2021/01/24 01:34:07;;;;;;;16.08;10.63;;;;;;;2.11;72.94;99167.94;682099;29;23448;-60
2021/01/24 01:34:28;;;;;;;14.35;10.07;;;;;;;2.11;72.96;99166.09;681519;29;46419;-60
2021/01/24 01:34:49;;;;;;;14.85;10.27;;;;;;;2.11;72.97;99165.28;681884;29;21504;-62
2021/01/24 01:35:11;;;;;;;16.17;10.73;;;;;;;2.10;73.04;99166.25;680945;29;46318;-61
2021/01/24 01:35:32;;;;;;;17.70;10.82;;;;;;;2.11;73.04;99168.75;681694;29;19716;-60
2021/01/24 01:35:54;;;;;;;14.73;10.48;;;;;;;2.12;72.96;99169.63;681331;29;46380;-60
2021/01/24 01:36:16;;;;;;;14.10;10.32;;;;;;;2.11;72.95;99168.75;682541;29;989;-59
2021/01/24 01:36:38;;;;;;;14.68;10.57;;;;;;;2.11;72.92;99160.75;682468;29;1154;-59
2021/01/24 01:36:59;;;;;;;15.57;10.40;;;;;;;2.12;72.89;99170.44;682703;28;22542;-61
2021/01/24 01:37:21;;;;;;;16.23;10.50;;;;;;;2.12;72.92;99170.44;682899;29;943;-61
2021/01/24 01:37:42;;;;;;;15.30;10.57;;;;;;;2.13;72.86;99166.78;681406;28;45087;-59
2021/01/24 01:38:08;;;;;;;14.35;9.88;;;;;;;2.12;72.79;99170.44;681463;29;36464;-60
2021/01/24 01:38:29;;;;;;;14.40;10.23;;;;;;;2.12;72.76;99169.63;681996;28;22540;-62
2021/01/24 01:38:51;;;;;;;15.27;10.77;;;;;;;2.11;72.95;99166.09;681595;29;37546;-61
2021/01/24 01:39:12;;;;;;;16.95;11.15;;;;;;;2.07;72.91;99161.25;681699;28;19921;-61
2021/01/24 01:39:36;;;;;;;16.48;10.93;;;;;;;2.10;72.98;99164.44;682188;29;13441;-62
2021/01/24 01:39:58;;;;;;;16.20;11.07;;;;;;;2.10;72.94;99160.94;681427;28;44268;-62
2021/01/24 01:40:19;;;;;;;16.88;10.85;;;;;;;2.12;73.00;99165.09;682482;29;22415;-62
2021/01/24 01:40:41;;;;;;;15.95;10.70;;;;;;;2.09;72.87;99148.63;680981;29;45132;-62
2021/01/24 01:41:02;;;;;;;15.07;10.27;;;;;;;2.15;72.85;99163.97;682066;29;23427;-62
2021/01/24 01:41:28;;;;;;;14.25;10.23;;;;;;;2.12;72.82;99158.97;681250;28;45271;-62
2021/01/24 01:41:50;;;;;;;14.88;10.63;;;;;;;2.14;72.95;99170.28;678375;29;136300;-60
2021/01/24 01:42:12;;;;;;;16.73;11.43;;;;;;;2.15;72.90;99169.28;682361;29;7657;-60
2021/01/24 01:42:34;;;;;;;15.95;10.93;;;;;;;2.14;72.92;99167.59;680408;29;67827;-61